sensor_id;sensor_type;location;lat;lon;timestamp;P1;durP1;ratioP1;P2;durP2;ratioP2
39982;SDS011;25670;44.782;10.356;2024-02-21T00:01:01;26.10;;;16.55;;
39982;SDS011;25670;44.782;10.356;2024-02-21T00:03:28;29.42;;;16.30;;
39982;SDS011;25670;44.782;10.356;2024-02-21T00:05:54;31.05;;;18.50;;
39982;SDS011;25670;44.782;10.356;2024-02-21T00:08:21;31.55;;;17.48;;
39982;SDS011;25670;44.782;10.356;2024-02-21T00:10:47;31.10;;;17.52;;
39982;SDS011;25670;44.782;10.356;2024-02-21T00:13:14;33.67;;;18.55;;
39982;SDS011;25670;44.782;10.356;2024-02-21T00:15:41;34.50;;;19.50;;
39982;SDS011;25670;44.782;10.356;2024-02-21T00:18:07;34.00;;;19.00;;
39982;SDS011;25670;44.782;10.356;2024-02-21T00:20:33;39.38;;;17.48;;
39982;SDS011;25670;44.782;10.356;2024-02-21T00:22:59;37.45;;;18.80;;
39982;SDS011;25670;44.782;10.356;2024-02-21T00:25:25;32.85;;;17.67;;
39982;SDS011;25670;44.782;10.356;2024-02-21T00:27:52;34.72;;;18.95;;
39982;SDS011;25670;44.782;10.356;2024-02-21T00:30:19;41.08;;;19.38;;
39982;SDS011;25670;44.782;10.356;2024-02-21T00:32:46;31.70;;;18.02;;
39982;SDS011;25670;44.782;10.356;2024-02-21T00:35:13;35.42;;;18.52;;
39982;SDS011;25670;44.782;10.356;2024-02-21T00:37:40;30.65;;;18.05;;
39982;SDS011;25670;44.782;10.356;2024-02-21T00:40:06;29.92;;;16.98;;
39982;SDS011;25670;44.782;10.356;2024-02-21T00:42:33;25.48;;;16.95;;
39982;SDS011;25670;44.782;10.356;2024-02-21T00:44:59;33.22;;;17.35;;
39982;SDS011;25670;44.782;10.356;2024-02-21T00:47:25;32.83;;;18.60;;
39982;SDS011;25670;44.782;10.356;2024-02-21T00:49:51;31.67;;;17.45;;
39982;SDS011;25670;44.782;10.356;2024-02-21T00:52:18;31.85;;;16.75;;
39982;SDS011;25670;44.782;10.356;2024-02-21T00:54:44;33.00;;;17.65;;
39982;SDS011;25670;44.782;10.356;2024-02-21T00:57:10;34.40;;;18.52;;
39982;SDS011;25670;44.782;10.356;2024-02-21T00:59:37;30.10;;;18.27;;
39982;SDS011;25670;44.782;10.356;2024-02-21T01:02:03;31.95;;;17.33;;
39982;SDS011;25670;44.782;10.356;2024-02-21T01:04:29;31.48;;;16.77;;
39982;SDS011;25670;44.782;10.356;2024-02-21T01:06:55;29.45;;;16.88;;
39982;SDS011;25670;44.782;10.356;2024-02-21T01:09:21;30.60;;;16.52;;
39982;SDS011;25670;44.782;10.356;2024-02-21T01:11:48;34.55;;;19.13;;
39982;SDS011;25670;44.782;10.356;2024-02-21T01:14:14;29.73;;;15.40;;
39982;SDS011;25670;44.782;10.356;2024-02-21T01:16:40;27.13;;;16.23;;
39982;SDS011;25670;44.782;10.356;2024-02-21T01:19:06;35.97;;;17.25;;
39982;SDS011;25670;44.782;10.356;2024-02-21T01:21:33;32.58;;;17.95;;
39982;SDS011;25670;44.782;10.356;2024-02-21T01:23:59;31.38;;;17.23;;
39982;SDS011;25670;44.782;10.356;2024-02-21T01:26:25;28.02;;;17.35;;
39982;SDS011;25670;44.782;10.356;2024-02-21T01:28:52;28.00;;;16.27;;
39982;SDS011;25670;44.782;10.356;2024-02-21T01:31:18;38.83;;;17.77;;
39982;SDS011;25670;44.782;10.356;2024-02-21T01:33:44;27.08;;;17.08;;
39982;SDS011;25670;44.782;10.356;2024-02-21T01:36:11;31.95;;;17.50;;
39982;SDS011;25670;44.782;10.356;2024-02-21T01:38:37;31.38;;;18.80;;
39982;SDS011;25670;44.782;10.356;2024-02-21T01:41:04;30.83;;;17.05;;
39982;SDS011;25670;44.782;10.356;2024-02-21T01:43:30;30.13;;;17.45;;
39982;SDS011;25670;44.782;10.356;2024-02-21T01:45:57;28.83;;;17.38;;
39982;SDS011;25670;44.782;10.356;2024-02-21T01:48:23;31.80;;;17.85;;
39982;SDS011;25670;44.782;10.356;2024-02-21T01:50:50;33.47;;;18.73;;
39982;SDS011;25670;44.782;10.356;2024-02-21T01:53:21;31.02;;;19.08;;
39982;SDS011;25670;44.782;10.356;2024-02-21T01:55:50;30.52;;;17.20;;
39982;SDS011;25670;44.782;10.356;2024-02-21T01:58:18;28.98;;;18.10;;
39982;SDS011;25670;44.782;10.356;2024-02-21T02:00:45;35.13;;;17.90;;
39982;SDS011;25670;44.782;10.356;2024-02-21T02:03:13;38.20;;;19.02;;
39982;SDS011;25670;44.782;10.356;2024-02-21T02:05:46;36.30;;;19.00;;
39982;SDS011;25670;44.782;10.356;2024-02-21T02:08:13;36.53;;;18.58;;
39982;SDS011;25670;44.782;10.356;2024-02-21T02:10:41;35.92;;;18.83;;
39982;SDS011;25670;44.782;10.356;2024-02-21T02:13:08;36.75;;;18.67;;
39982;SDS011;25670;44.782;10.356;2024-02-21T02:15:47;35.53;;;18.67;;
39982;SDS011;25670;44.782;10.356;2024-02-21T02:18:15;38.55;;;20.02;;
39982;SDS011;25670;44.782;10.356;2024-02-21T02:20:45;30.85;;;17.60;;
39982;SDS011;25670;44.782;10.356;2024-02-21T02:25:57;31.48;;;17.77;;
39982;SDS011;25670;44.782;10.356;2024-02-21T02:28:24;42.55;;;20.52;;
39982;SDS011;25670;44.782;10.356;2024-02-21T02:30:50;35.25;;;19.25;;
39982;SDS011;25670;44.782;10.356;2024-02-21T02:33:17;35.47;;;19.20;;
39982;SDS011;25670;44.782;10.356;2024-02-21T02:35:44;38.40;;;19.52;;
39982;SDS011;25670;44.782;10.356;2024-02-21T02:38:11;37.92;;;18.45;;
39982;SDS011;25670;44.782;10.356;2024-02-21T02:40:38;31.75;;;18.63;;
39982;SDS011;25670;44.782;10.356;2024-02-21T02:43:08;33.28;;;18.40;;
39982;SDS011;25670;44.782;10.356;2024-02-21T02:45:35;35.40;;;18.38;;
39982;SDS011;25670;44.782;10.356;2024-02-21T02:48:02;30.65;;;18.17;;
39982;SDS011;25670;44.782;10.356;2024-02-21T02:50:28;32.78;;;16.88;;
39982;SDS011;25670;44.782;10.356;2024-02-21T02:52:55;29.73;;;17.45;;
39982;SDS011;25670;44.782;10.356;2024-02-21T02:55:22;35.65;;;18.90;;
39982;SDS011;25670;44.782;10.356;2024-02-21T02:57:48;35.38;;;19.38;;
39982;SDS011;25670;44.782;10.356;2024-02-21T03:00:15;42.65;;;20.10;;
39982;SDS011;25670;44.782;10.356;2024-02-21T03:02:42;39.75;;;19.60;;
39982;SDS011;25670;44.782;10.356;2024-02-21T03:05:14;27.13;;;16.92;;
39982;SDS011;25670;44.782;10.356;2024-02-21T03:07:42;40.90;;;17.65;;
39982;SDS011;25670;44.782;10.356;2024-02-21T03:10:09;34.75;;;16.83;;
39982;SDS011;25670;44.782;10.356;2024-02-21T03:12:36;30.13;;;17.88;;
39982;SDS011;25670;44.782;10.356;2024-02-21T03:15:02;36.28;;;18.92;;
39982;SDS011;25670;44.782;10.356;2024-02-21T03:17:30;37.63;;;19.30;;
39982;SDS011;25670;44.782;10.356;2024-02-21T03:19:57;38.42;;;20.02;;
39982;SDS011;25670;44.782;10.356;2024-02-21T03:22:25;36.55;;;19.05;;
39982;SDS011;25670;44.782;10.356;2024-02-21T03:24:51;39.65;;;20.75;;
39982;SDS011;25670;44.782;10.356;2024-02-21T03:27:17;40.30;;;19.77;;
39982;SDS011;25670;44.782;10.356;2024-02-21T03:29:44;42.20;;;20.52;;
39982;SDS011;25670;44.782;10.356;2024-02-21T03:32:10;43.75;;;20.20;;
39982;SDS011;25670;44.782;10.356;2024-02-21T03:34:36;44.00;;;20.88;;
39982;SDS011;25670;44.782;10.356;2024-02-21T03:37:03;43.08;;;20.90;;
39982;SDS011;25670;44.782;10.356;2024-02-21T03:39:32;42.15;;;19.55;;
39982;SDS011;25670;44.782;10.356;2024-02-21T03:41:58;39.05;;;19.40;;
39982;SDS011;25670;44.782;10.356;2024-02-21T03:44:30;33.90;;;18.98;;
39982;SDS011;25670;44.782;10.356;2024-02-21T03:46:58;42.22;;;20.42;;
39982;SDS011;25670;44.782;10.356;2024-02-21T03:49:24;36.20;;;19.55;;
39982;SDS011;25670;44.782;10.356;2024-02-21T03:51:50;35.20;;;18.73;;
39982;SDS011;25670;44.782;10.356;2024-02-21T03:54:17;35.15;;;17.50;;
39982;SDS011;25670;44.782;10.356;2024-02-21T03:56:43;29.10;;;16.85;;
39982;SDS011;25670;44.782;10.356;2024-02-21T03:59:09;33.30;;;17.55;;
39982;SDS011;25670;44.782;10.356;2024-02-21T04:01:36;28.85;;;16.48;;
39982;SDS011;25670;44.782;10.356;2024-02-21T04:04:02;33.28;;;17.02;;
39982;SDS011;25670;44.782;10.356;2024-02-21T04:06:28;27.67;;;15.15;;
39982;SDS011;25670;44.782;10.356;2024-02-21T04:08:55;32.25;;;17.17;;
39982;SDS011;25670;44.782;10.356;2024-02-21T04:11:22;36.90;;;18.15;;
39982;SDS011;25670;44.782;10.356;2024-02-21T04:13:48;36.97;;;17.77;;
39982;SDS011;25670;44.782;10.356;2024-02-21T04:16:16;33.75;;;16.60;;
39982;SDS011;25670;44.782;10.356;2024-02-21T04:18:42;26.25;;;16.42;;
39982;SDS011;25670;44.782;10.356;2024-02-21T04:21:09;35.40;;;17.23;;
39982;SDS011;25670;44.782;10.356;2024-02-21T04:23:36;31.08;;;15.95;;
39982;SDS011;25670;44.782;10.356;2024-02-21T04:26:02;31.23;;;17.38;;
39982;SDS011;25670;44.782;10.356;2024-02-21T04:28:28;37.22;;;17.35;;
39982;SDS011;25670;44.782;10.356;2024-02-21T04:30:54;34.47;;;17.17;;
39982;SDS011;25670;44.782;10.356;2024-02-21T04:33:21;29.27;;;16.35;;
39982;SDS011;25670;44.782;10.356;2024-02-21T04:35:47;28.92;;;15.40;;
39982;SDS011;25670;44.782;10.356;2024-02-21T04:38:13;28.88;;;15.75;;
39982;SDS011;25670;44.782;10.356;2024-02-21T04:40:40;24.35;;;15.75;;
39982;SDS011;25670;44.782;10.356;2024-02-21T04:43:06;26.88;;;15.75;;
39982;SDS011;25670;44.782;10.356;2024-02-21T04:45:33;28.10;;;15.23;;
39982;SDS011;25670;44.782;10.356;2024-02-21T04:47:59;26.33;;;15.05;;
39982;SDS011;25670;44.782;10.356;2024-02-21T04:50:25;29.00;;;17.65;;
39982;SDS011;25670;44.782;10.356;2024-02-21T04:52:51;31.42;;;17.45;;
39982;SDS011;25670;44.782;10.356;2024-02-21T04:55:17;33.85;;;18.23;;
39982;SDS011;25670;44.782;10.356;2024-02-21T04:57:44;25.52;;;15.93;;
39982;SDS011;25670;44.782;10.356;2024-02-21T05:00:10;30.58;;;16.85;;
39982;SDS011;25670;44.782;10.356;2024-02-21T05:02:37;34.05;;;16.73;;
39982;SDS011;25670;44.782;10.356;2024-02-21T05:05:03;34.63;;;17.92;;
39982;SDS011;25670;44.782;10.356;2024-02-21T05:07:30;29.40;;;16.08;;
39982;SDS011;25670;44.782;10.356;2024-02-21T05:09:56;30.75;;;16.65;;
39982;SDS011;25670;44.782;10.356;2024-02-21T05:12:22;27.98;;;16.75;;
39982;SDS011;25670;44.782;10.356;2024-02-21T05:14:48;27.80;;;16.27;;
39982;SDS011;25670;44.782;10.356;2024-02-21T05:17:15;34.35;;;16.52;;
39982;SDS011;25670;44.782;10.356;2024-02-21T05:19:41;33.88;;;15.77;;
39982;SDS011;25670;44.782;10.356;2024-02-21T05:22:08;31.60;;;16.48;;
39982;SDS011;25670;44.782;10.356;2024-02-21T05:24:34;32.00;;;17.27;;
39982;SDS011;25670;44.782;10.356;2024-02-21T05:27:02;36.08;;;18.35;;
39982;SDS011;25670;44.782;10.356;2024-02-21T05:29:29;31.77;;;16.05;;
39982;SDS011;25670;44.782;10.356;2024-02-21T05:31:55;25.33;;;14.35;;
39982;SDS011;25670;44.782;10.356;2024-02-21T05:34:23;29.38;;;16.00;;
39982;SDS011;25670;44.782;10.356;2024-02-21T05:36:52;26.40;;;15.90;;
39982;SDS011;25670;44.782;10.356;2024-02-21T05:39:18;29.08;;;16.63;;
39982;SDS011;25670;44.782;10.356;2024-02-21T05:41:45;30.38;;;15.73;;
39982;SDS011;25670;44.782;10.356;2024-02-21T05:44:14;38.80;;;17.17;;
39982;SDS011;25670;44.782;10.356;2024-02-21T05:46:40;29.80;;;17.45;;
39982;SDS011;25670;44.782;10.356;2024-02-21T05:49:07;37.42;;;18.52;;
39982;SDS011;25670;44.782;10.356;2024-02-21T05:51:34;37.55;;;18.40;;
39982;SDS011;25670;44.782;10.356;2024-02-21T05:54:04;35.17;;;18.73;;
39982;SDS011;25670;44.782;10.356;2024-02-21T05:56:31;38.80;;;19.90;;
39982;SDS011;25670;44.782;10.356;2024-02-21T05:58:57;45.25;;;20.08;;
39982;SDS011;25670;44.782;10.356;2024-02-21T06:01:24;35.08;;;19.67;;
39982;SDS011;25670;44.782;10.356;2024-02-21T06:03:50;45.65;;;19.45;;
39982;SDS011;25670;44.782;10.356;2024-02-21T06:06:17;51.45;;;20.45;;
39982;SDS011;25670;44.782;10.356;2024-02-21T06:08:43;42.55;;;21.10;;
39982;SDS011;25670;44.782;10.356;2024-02-21T06:11:10;39.38;;;20.00;;
39982;SDS011;25670;44.782;10.356;2024-02-21T06:13:38;42.63;;;20.75;;
39982;SDS011;25670;44.782;10.356;2024-02-21T06:16:07;41.00;;;20.58;;
39982;SDS011;25670;44.782;10.356;2024-02-21T06:18:34;47.35;;;21.38;;
39982;SDS011;25670;44.782;10.356;2024-02-21T06:21:03;41.22;;;20.73;;
39982;SDS011;25670;44.782;10.356;2024-02-21T06:23:29;49.70;;;22.85;;
39982;SDS011;25670;44.782;10.356;2024-02-21T06:25:56;43.38;;;21.15;;
39982;SDS011;25670;44.782;10.356;2024-02-21T06:28:22;43.70;;;20.48;;
39982;SDS011;25670;44.782;10.356;2024-02-21T06:30:48;50.42;;;19.35;;
39982;SDS011;25670;44.782;10.356;2024-02-21T06:33:14;54.30;;;21.92;;
39982;SDS011;25670;44.782;10.356;2024-02-21T06:35:41;49.75;;;21.73;;
39982;SDS011;25670;44.782;10.356;2024-02-21T06:38:08;48.08;;;22.20;;
39982;SDS011;25670;44.782;10.356;2024-02-21T06:40:34;49.45;;;23.35;;
39982;SDS011;25670;44.782;10.356;2024-02-21T06:43:05;48.22;;;23.45;;
39982;SDS011;25670;44.782;10.356;2024-02-21T06:45:31;53.05;;;23.20;;
39982;SDS011;25670;44.782;10.356;2024-02-21T06:47:58;49.03;;;25.35;;
39982;SDS011;25670;44.782;10.356;2024-02-21T06:50:24;48.22;;;21.75;;
39982;SDS011;25670;44.782;10.356;2024-02-21T06:52:50;52.92;;;21.73;;
39982;SDS011;25670;44.782;10.356;2024-02-21T06:55:17;47.50;;;23.25;;
39982;SDS011;25670;44.782;10.356;2024-02-21T06:57:43;48.38;;;23.80;;
39982;SDS011;25670;44.782;10.356;2024-02-21T07:00:10;47.38;;;22.00;;
39982;SDS011;25670;44.782;10.356;2024-02-21T07:02:36;52.47;;;22.02;;
39982;SDS011;25670;44.782;10.356;2024-02-21T07:05:03;45.70;;;22.73;;
39982;SDS011;25670;44.782;10.356;2024-02-21T07:07:29;47.83;;;22.50;;
39982;SDS011;25670;44.782;10.356;2024-02-21T07:09:55;47.78;;;23.80;;
39982;SDS011;25670;44.782;10.356;2024-02-21T07:12:22;53.13;;;24.92;;
39982;SDS011;25670;44.782;10.356;2024-02-21T07:14:48;49.60;;;23.02;;
39982;SDS011;25670;44.782;10.356;2024-02-21T07:17:14;49.47;;;22.05;;
39982;SDS011;25670;44.782;10.356;2024-02-21T07:19:41;44.35;;;21.83;;
39982;SDS011;25670;44.782;10.356;2024-02-21T07:22:07;53.20;;;22.58;;
39982;SDS011;25670;44.782;10.356;2024-02-21T07:24:34;43.17;;;22.45;;
39982;SDS011;25670;44.782;10.356;2024-02-21T07:27:01;52.35;;;23.73;;
39982;SDS011;25670;44.782;10.356;2024-02-21T07:29:30;53.05;;;22.73;;
39982;SDS011;25670;44.782;10.356;2024-02-21T07:31:57;53.08;;;22.23;;
39982;SDS011;25670;44.782;10.356;2024-02-21T07:34:23;47.60;;;21.65;;
39982;SDS011;25670;44.782;10.356;2024-02-21T07:36:50;45.83;;;21.45;;
39982;SDS011;25670;44.782;10.356;2024-02-21T07:39:16;54.30;;;21.92;;
39982;SDS011;25670;44.782;10.356;2024-02-21T07:41:43;38.47;;;19.27;;
39982;SDS011;25670;44.782;10.356;2024-02-21T07:44:12;41.83;;;18.50;;
39982;SDS011;25670;44.782;10.356;2024-02-21T07:46:38;34.55;;;18.70;;
39982;SDS011;25670;44.782;10.356;2024-02-21T07:49:04;39.58;;;18.67;;
39982;SDS011;25670;44.782;10.356;2024-02-21T07:51:31;38.15;;;18.58;;
39982;SDS011;25670;44.782;10.356;2024-02-21T07:53:57;40.40;;;18.58;;
39982;SDS011;25670;44.782;10.356;2024-02-21T07:56:27;30.52;;;16.20;;
39982;SDS011;25670;44.782;10.356;2024-02-21T07:58:54;35.00;;;16.52;;
39982;SDS011;25670;44.782;10.356;2024-02-21T08:01:21;45.83;;;18.25;;
39982;SDS011;25670;44.782;10.356;2024-02-21T08:03:47;40.90;;;19.98;;
39982;SDS011;25670;44.782;10.356;2024-02-21T08:06:14;52.97;;;17.08;;
39982;SDS011;25670;44.782;10.356;2024-02-21T08:08:40;33.83;;;14.98;;
39982;SDS011;25670;44.782;10.356;2024-02-21T08:11:07;28.63;;;14.85;;
39982;SDS011;25670;44.782;10.356;2024-02-21T08:13:33;29.60;;;14.60;;
39982;SDS011;25670;44.782;10.356;2024-02-21T08:16:00;23.77;;;13.57;;
39982;SDS011;25670;44.782;10.356;2024-02-21T08:18:26;28.33;;;13.30;;
39982;SDS011;25670;44.782;10.356;2024-02-21T08:20:53;22.95;;;14.05;;
39982;SDS011;25670;44.782;10.356;2024-02-21T08:23:19;28.25;;;15.20;;
39982;SDS011;25670;44.782;10.356;2024-02-21T08:25:48;27.35;;;14.80;;
39982;SDS011;25670;44.782;10.356;2024-02-21T08:28:15;25.80;;;14.57;;
39982;SDS011;25670;44.782;10.356;2024-02-21T08:30:41;30.08;;;15.15;;
39982;SDS011;25670;44.782;10.356;2024-02-21T08:33:14;23.83;;;13.85;;
39982;SDS011;25670;44.782;10.356;2024-02-21T08:35:42;22.05;;;13.48;;
39982;SDS011;25670;44.782;10.356;2024-02-21T08:38:08;25.90;;;12.73;;
39982;SDS011;25670;44.782;10.356;2024-02-21T08:40:35;24.13;;;13.48;;
39982;SDS011;25670;44.782;10.356;2024-02-21T08:43:02;23.95;;;13.43;;
39982;SDS011;25670;44.782;10.356;2024-02-21T08:45:29;26.02;;;13.68;;
39982;SDS011;25670;44.782;10.356;2024-02-21T08:47:55;26.08;;;14.75;;
39982;SDS011;25670;44.782;10.356;2024-02-21T08:50:21;22.58;;;14.43;;
39982;SDS011;25670;44.782;10.356;2024-02-21T08:52:48;34.95;;;16.60;;
39982;SDS011;25670;44.782;10.356;2024-02-21T08:55:14;26.77;;;15.10;;
39982;SDS011;25670;44.782;10.356;2024-02-21T08:57:40;29.15;;;15.05;;
39982;SDS011;25670;44.782;10.356;2024-02-21T09:00:07;33.53;;;16.67;;
39982;SDS011;25670;44.782;10.356;2024-02-21T09:02:39;31.08;;;15.68;;
39982;SDS011;25670;44.782;10.356;2024-02-21T09:05:06;26.90;;;17.13;;
39982;SDS011;25670;44.782;10.356;2024-02-21T09:07:32;26.15;;;15.35;;
39982;SDS011;25670;44.782;10.356;2024-02-21T09:09:58;37.10;;;14.52;;
39982;SDS011;25670;44.782;10.356;2024-02-21T09:12:25;33.10;;;15.95;;
39982;SDS011;25670;44.782;10.356;2024-02-21T09:14:51;28.60;;;16.27;;
39982;SDS011;25670;44.782;10.356;2024-02-21T09:17:17;32.75;;;16.42;;
39982;SDS011;25670;44.782;10.356;2024-02-21T09:19:48;33.60;;;18.13;;
39982;SDS011;25670;44.782;10.356;2024-02-21T09:22:15;32.70;;;17.73;;
39982;SDS011;25670;44.782;10.356;2024-02-21T09:24:41;27.33;;;16.23;;
39982;SDS011;25670;44.782;10.356;2024-02-21T09:27:07;35.47;;;17.52;;
39982;SDS011;25670;44.782;10.356;2024-02-21T09:29:33;33.45;;;17.70;;
39982;SDS011;25670;44.782;10.356;2024-02-21T09:31:59;32.45;;;16.92;;
39982;SDS011;25670;44.782;10.356;2024-02-21T09:34:26;31.30;;;18.33;;
39982;SDS011;25670;44.782;10.356;2024-02-21T09:36:53;30.27;;;17.55;;
39982;SDS011;25670;44.782;10.356;2024-02-21T09:39:19;32.22;;;17.52;;
39982;SDS011;25670;44.782;10.356;2024-02-21T09:41:48;32.28;;;17.77;;
39982;SDS011;25670;44.782;10.356;2024-02-21T09:44:21;26.88;;;16.67;;
39982;SDS011;25670;44.782;10.356;2024-02-21T09:49:47;32.55;;;19.17;;
39982;SDS011;25670;44.782;10.356;2024-02-21T09:52:14;29.95;;;18.13;;
39982;SDS011;25670;44.782;10.356;2024-02-21T09:54:41;36.03;;;19.25;;
39982;SDS011;25670;44.782;10.356;2024-02-21T09:59:38;32.05;;;18.00;;
39982;SDS011;25670;44.782;10.356;2024-02-21T10:02:07;42.22;;;20.48;;
39982;SDS011;25670;44.782;10.356;2024-02-21T10:04:33;34.65;;;20.33;;
39982;SDS011;25670;44.782;10.356;2024-02-21T10:06:59;36.17;;;20.08;;
39982;SDS011;25670;44.782;10.356;2024-02-21T10:09:26;41.15;;;19.98;;
39982;SDS011;25670;44.782;10.356;2024-02-21T10:11:54;41.20;;;21.23;;
39982;SDS011;25670;44.782;10.356;2024-02-21T10:14:21;39.30;;;22.38;;
39982;SDS011;25670;44.782;10.356;2024-02-21T10:16:48;33.92;;;19.83;;
39982;SDS011;25670;44.782;10.356;2024-02-21T10:19:23;31.30;;;20.08;;
39982;SDS011;25670;44.782;10.356;2024-02-21T10:22:03;36.63;;;21.23;;
39982;SDS011;25670;44.782;10.356;2024-02-21T10:24:35;39.00;;;19.60;;
39982;SDS011;25670;44.782;10.356;2024-02-21T10:27:08;33.05;;;20.63;;
39982;SDS011;25670;44.782;10.356;2024-02-21T10:29:36;43.67;;;22.60;;
39982;SDS011;25670;44.782;10.356;2024-02-21T10:32:04;44.25;;;23.83;;
39982;SDS011;25670;44.782;10.356;2024-02-21T10:34:34;37.75;;;22.10;;
39982;SDS011;25670;44.782;10.356;2024-02-21T10:37:01;41.03;;;21.88;;
39982;SDS011;25670;44.782;10.356;2024-02-21T10:39:38;43.55;;;22.92;;
39982;SDS011;25670;44.782;10.356;2024-02-21T10:42:08;39.60;;;22.45;;
39982;SDS011;25670;44.782;10.356;2024-02-21T10:44:37;42.92;;;22.63;;
39982;SDS011;25670;44.782;10.356;2024-02-21T10:47:09;40.95;;;22.85;;
39982;SDS011;25670;44.782;10.356;2024-02-21T10:49:38;46.50;;;24.92;;
39982;SDS011;25670;44.782;10.356;2024-02-21T10:54:47;40.72;;;23.00;;
39982;SDS011;25670;44.782;10.356;2024-02-21T10:57:22;48.42;;;26.45;;
39982;SDS011;25670;44.782;10.356;2024-02-21T10:59:50;50.50;;;27.63;;
39982;SDS011;25670;44.782;10.356;2024-02-21T11:02:17;57.38;;;27.67;;
39982;SDS011;25670;44.782;10.356;2024-02-21T11:04:43;57.60;;;29.50;;
39982;SDS011;25670;44.782;10.356;2024-02-21T11:07:11;57.65;;;29.02;;
39982;SDS011;25670;44.782;10.356;2024-02-21T11:09:37;55.05;;;29.05;;
39982;SDS011;25670;44.782;10.356;2024-02-21T11:12:04;54.80;;;27.77;;
39982;SDS011;25670;44.782;10.356;2024-02-21T11:14:31;56.83;;;29.50;;
39982;SDS011;25670;44.782;10.356;2024-02-21T11:17:14;60.10;;;31.00;;
39982;SDS011;25670;44.782;10.356;2024-02-21T11:19:42;61.58;;;30.08;;
39982;SDS011;25670;44.782;10.356;2024-02-21T11:22:18;58.50;;;30.45;;
39982;SDS011;25670;44.782;10.356;2024-02-21T11:24:48;56.10;;;29.63;;
39982;SDS011;25670;44.782;10.356;2024-02-21T11:27:21;54.67;;;30.23;;
39982;SDS011;25670;44.782;10.356;2024-02-21T11:29:55;54.90;;;30.17;;
39982;SDS011;25670;44.782;10.356;2024-02-21T11:32:22;59.25;;;31.00;;
39982;SDS011;25670;44.782;10.356;2024-02-21T11:35:03;57.17;;;31.58;;
39982;SDS011;25670;44.782;10.356;2024-02-21T11:37:31;57.97;;;30.70;;
39982;SDS011;25670;44.782;10.356;2024-02-21T11:40:02;56.20;;;31.30;;
39982;SDS011;25670;44.782;10.356;2024-02-21T11:42:30;53.88;;;31.17;;
39982;SDS011;25670;44.782;10.356;2024-02-21T11:44:57;51.60;;;31.48;;
39982;SDS011;25670;44.782;10.356;2024-02-21T11:47:23;56.97;;;31.38;;
39982;SDS011;25670;44.782;10.356;2024-02-21T11:49:50;53.67;;;30.05;;
39982;SDS011;25670;44.782;10.356;2024-02-21T11:52:22;59.63;;;32.50;;
39982;SDS011;25670;44.782;10.356;2024-02-21T11:54:55;54.90;;;31.70;;
39982;SDS011;25670;44.782;10.356;2024-02-21T11:57:30;57.47;;;32.05;;
39982;SDS011;25670;44.782;10.356;2024-02-21T11:59:57;48.38;;;30.38;;
39982;SDS011;25670;44.782;10.356;2024-02-21T12:02:23;55.58;;;31.50;;
39982;SDS011;25670;44.782;10.356;2024-02-21T12:04:49;60.97;;;31.25;;
39982;SDS011;25670;44.782;10.356;2024-02-21T12:07:17;53.72;;;31.10;;
39982;SDS011;25670;44.782;10.356;2024-02-21T12:09:43;53.13;;;31.17;;
39982;SDS011;25670;44.782;10.356;2024-02-21T12:12:10;56.72;;;31.48;;
39982;SDS011;25670;44.782;10.356;2024-02-21T12:14:36;57.90;;;32.53;;
39982;SDS011;25670;44.782;10.356;2024-02-21T12:17:04;58.10;;;33.38;;
39982;SDS011;25670;44.782;10.356;2024-02-21T12:19:30;61.28;;;32.90;;
39982;SDS011;25670;44.782;10.356;2024-02-21T12:22:01;54.95;;;32.38;;
39982;SDS011;25670;44.782;10.356;2024-02-21T12:24:31;59.95;;;33.63;;
39982;SDS011;25670;44.782;10.356;2024-02-21T12:26:57;60.78;;;33.90;;
39982;SDS011;25670;44.782;10.356;2024-02-21T12:29:24;55.88;;;34.00;;
39982;SDS011;25670;44.782;10.356;2024-02-21T12:31:51;61.42;;;33.60;;
39982;SDS011;25670;44.782;10.356;2024-02-21T12:34:19;53.30;;;31.77;;
39982;SDS011;25670;44.782;10.356;2024-02-21T12:36:47;56.08;;;32.25;;
39982;SDS011;25670;44.782;10.356;2024-02-21T12:39:14;55.45;;;32.95;;
39982;SDS011;25670;44.782;10.356;2024-02-21T12:41:42;54.40;;;31.30;;
39982;SDS011;25670;44.782;10.356;2024-02-21T12:44:10;55.75;;;32.22;;
39982;SDS011;25670;44.782;10.356;2024-02-21T12:46:37;52.17;;;32.58;;
39982;SDS011;25670;44.782;10.356;2024-02-21T12:49:04;57.38;;;33.15;;
39982;SDS011;25670;44.782;10.356;2024-02-21T12:51:30;59.95;;;33.67;;
39982;SDS011;25670;44.782;10.356;2024-02-21T12:53:57;50.53;;;32.55;;
39982;SDS011;25670;44.782;10.356;2024-02-21T12:56:25;51.88;;;32.75;;
39982;SDS011;25670;44.782;10.356;2024-02-21T12:58:57;50.55;;;32.22;;
39982;SDS011;25670;44.782;10.356;2024-02-21T13:01:23;49.55;;;31.65;;
39982;SDS011;25670;44.782;10.356;2024-02-21T13:03:50;49.55;;;31.75;;
39982;SDS011;25670;44.782;10.356;2024-02-21T13:06:16;48.22;;;33.08;;
39982;SDS011;25670;44.782;10.356;2024-02-21T13:08:44;47.35;;;31.38;;
39982;SDS011;25670;44.782;10.356;2024-02-21T13:11:12;48.97;;;33.80;;
39982;SDS011;25670;44.782;10.356;2024-02-21T13:13:38;43.20;;;31.45;;
39982;SDS011;25670;44.782;10.356;2024-02-21T13:16:05;47.85;;;33.17;;
39982;SDS011;25670;44.782;10.356;2024-02-21T13:18:31;46.42;;;31.35;;
39982;SDS011;25670;44.782;10.356;2024-02-21T13:21:04;44.83;;;30.52;;
39982;SDS011;25670;44.782;10.356;2024-02-21T13:23:31;43.15;;;28.80;;
39982;SDS011;25670;44.782;10.356;2024-02-21T13:25:57;48.67;;;30.80;;
39982;SDS011;25670;44.782;10.356;2024-02-21T13:28:24;43.50;;;28.60;;
39982;SDS011;25670;44.782;10.356;2024-02-21T13:30:50;44.60;;;30.23;;
39982;SDS011;25670;44.782;10.356;2024-02-21T13:33:16;40.35;;;28.35;;
39982;SDS011;25670;44.782;10.356;2024-02-21T13:35:43;40.95;;;28.77;;
39982;SDS011;25670;44.782;10.356;2024-02-21T13:38:10;37.95;;;26.08;;
39982;SDS011;25670;44.782;10.356;2024-02-21T13:40:37;40.53;;;28.05;;
39982;SDS011;25670;44.782;10.356;2024-02-21T13:43:03;41.70;;;29.30;;
39982;SDS011;25670;44.782;10.356;2024-02-21T13:45:29;37.65;;;29.00;;
39982;SDS011;25670;44.782;10.356;2024-02-21T13:47:57;41.83;;;28.45;;
39982;SDS011;25670;44.782;10.356;2024-02-21T13:50:27;42.00;;;26.88;;
39982;SDS011;25670;44.782;10.356;2024-02-21T13:52:55;41.00;;;28.30;;
39982;SDS011;25670;44.782;10.356;2024-02-21T13:55:22;39.78;;;27.35;;
39982;SDS011;25670;44.782;10.356;2024-02-21T13:57:52;39.95;;;27.55;;
39982;SDS011;25670;44.782;10.356;2024-02-21T14:00:18;37.13;;;27.35;;
39982;SDS011;25670;44.782;10.356;2024-02-21T14:02:46;42.97;;;27.98;;
39982;SDS011;25670;44.782;10.356;2024-02-21T14:05:12;41.38;;;27.88;;
39982;SDS011;25670;44.782;10.356;2024-02-21T14:07:40;39.47;;;27.50;;
39982;SDS011;25670;44.782;10.356;2024-02-21T14:10:22;40.88;;;29.27;;
39982;SDS011;25670;44.782;10.356;2024-02-21T14:12:48;43.33;;;29.35;;
39982;SDS011;25670;44.782;10.356;2024-02-21T14:15:18;45.17;;;29.23;;
39982;SDS011;25670;44.782;10.356;2024-02-21T14:17:44;46.33;;;28.35;;
39982;SDS011;25670;44.782;10.356;2024-02-21T14:20:10;38.63;;;26.25;;